Time;durP1;ratioP1;P1;durP2;ratioP2;P2;SDS_P1;SDS_P2;PMS_P1;PMS_P2;Temp;Humidity;BMP_temperature;BMP_pressure;BME280_temperature;BME280_humidity;BME280_pressure;Samples;Min_cycle;Max_cycle;Signal;HPM_P1;HPM_P2
2024/01/09 05:33:12;;;;;;;;;20.75;15.25;;;;;9.56;35.11;102099.00;5013648;28;45352;-73
2024/01/09 05:35:37;;;;;;;;;13.50;13.50;;;;;9.63;34.95;102110.47;5010662;28;45363;-73
2024/01/09 05:38:03;;;;;;;;;17.25;16.25;;;;;9.67;34.88;102112.19;5009688;28;55289;-73
2024/01/09 05:40:28;;;;;;;;;14.00;14.00;;;;;9.58;35.19;102098.97;5026942;28;45366;-73
2024/01/09 05:42:53;;;;;;;;;15.75;13.25;;;;;9.64;35.45;102109.56;5013782;28;45518;-73
2024/01/09 05:45:19;;;;;;;;;24.50;17.25;;;;;9.60;34.90;102090.00;5011335;28;46024;-73
2024/01/09 05:47:44;;;;;;;;;17.25;14.50;;;;;9.58;35.17;102096.31;4994436;28;45506;-73
2024/01/09 05:50:09;;;;;;;;;10.25;10.25;;;;;9.60;34.78;102103.41;5014056;28;45316;-74
2024/01/09 05:52:38;;;;;;;;;21.00;18.75;;;;;9.56;34.90;102104.34;5013994;28;45368;-74
2024/01/09 05:55:05;;;;;;;;;23.50;21.75;;;;;9.42;35.33;102085.03;4995432;28;47293;-75
2024/01/09 05:57:30;;;;;;;;;17.50;15.75;;;;;9.54;34.85;102100.81;5013942;28;45407;-74
2024/01/09 05:59:56;;;;;;;;;21.75;15.50;;;;;9.53;34.70;102108.91;5014183;28;45283;-73
2024/01/09 06:02:22;;;;;;;;;20.25;20.25;;;;;9.55;34.48;102107.06;4996225;28;45573;-74
2024/01/09 06:04:48;;;;;;;;;22.00;19.25;;;;;9.55;34.21;102112.41;5014379;28;46526;-75
2024/01/09 06:07:15;;;;;;;;;19.75;17.50;;;;;9.47;34.90;102110.78;5014168;28;45308;-74
2024/01/09 06:09:40;;;;;;;;;23.25;17.00;;;;;9.47;34.34;102105.41;5014469;28;45429;-73
2024/01/09 06:12:06;;;;;;;;;27.00;21.00;;;;;9.42;34.42;102095.72;5014079;28;45322;-72
2024/01/09 06:14:32;;;;;;;;;23.75;19.25;;;;;9.55;34.15;102115.09;5016143;28;46418;-73
2024/01/09 06:16:57;;;;;;;;;26.00;19.00;;;;;9.55;33.99;102125.81;5013642;28;45182;-71
2024/01/09 06:19:22;;;;;;;;;16.25;16.25;;;;;9.49;34.05;102118.78;5014272;28;45317;-74
2024/01/09 06:21:47;;;;;;;;;23.25;19.25;;;;;9.41;34.28;102116.25;5013624;28;45419;-75
2024/01/09 06:24:13;;;;;;;;;19.25;17.00;;;;;9.42;34.38;102128.72;4995467;28;58161;-74
2024/01/09 06:26:38;;;;;;;;;17.75;16.50;;;;;9.39;34.18;102117.19;5013785;28;45401;-75
2024/01/09 06:29:05;;;;;;;;;22.50;19.25;;;;;9.38;34.32;102118.09;4995969;28;45274;-75
2024/01/09 06:31:31;;;;;;;;;27.50;22.25;;;;;9.48;34.08;102119.69;5021728;28;45322;-74
2024/01/09 06:33:56;;;;;;;;;25.25;19.25;;;;;9.42;34.29;102115.34;5035817;28;45867;-73
2024/01/09 06:36:21;;;;;;;;;23.00;21.75;;;;;9.26;34.15;102095.16;5015746;28;45351;-74
2024/01/09 06:38:47;;;;;;;;;22.75;21.75;;;;;9.24;34.47;102109.47;5033938;28;45369;-73
2024/01/09 06:41:12;;;;;;;;;17.75;16.75;;;;;9.33;34.59;102120.88;5023574;28;45575;-75
2024/01/09 06:43:37;;;;;;;;;28.00;26.00;;;;;9.27;34.62;102123.63;5033191;28;50163;-73
2024/01/09 06:46:03;;;;;;;;;22.25;19.50;;;;;9.28;34.30;102114.69;5033958;28;45340;-80
2024/01/09 06:48:28;;;;;;;;;22.50;19.75;;;;;9.23;34.97;102111.25;5037626;28;45532;-77
2024/01/09 06:50:53;;;;;;;;;24.75;21.25;;;;;9.31;34.46;102122.69;5037616;28;45325;-75
2024/01/09 06:53:19;;;;;;;;;23.75;23.50;;;;;9.17;34.10;102110.47;5036643;28;47022;-77
2024/01/09 06:55:44;;;;;;;;;27.25;22.00;;;;;9.17;34.84;102108.69;5037434;28;51042;-80
2024/01/09 06:58:12;;;;;;;;;22.50;22.50;;;;;9.22;34.90;102119.28;5019917;28;45451;-77
2024/01/09 07:00:37;;;;;;;;;29.00;25.25;;;;;9.21;34.61;102128.22;5036545;28;45534;-75
2024/01/09 07:03:03;;;;;;;;;23.50;22.25;;;;;8.97;34.66;102076.94;5019389;28;47873;-79
2024/01/09 07:05:29;;;;;;;;;27.75;21.75;;;;;9.10;34.80;102099.03;5037411;28;45700;-81
2024/01/09 07:07:54;;;;;;;;;25.75;24.75;;;;;9.23;34.63;102126.41;5018966;28;45355;-79
2024/01/09 07:10:20;;;;;;;;;20.75;18.75;;;;;9.19;34.73;102112.19;5035881;28;45445;-80
2024/01/09 07:12:45;;;;;;;;;23.00;17.75;;;;;9.06;34.55;102099.97;5039640;28;45330;-80
2024/01/09 07:15:13;;;;;;;;;19.50;19.50;;;;;9.10;34.41;102096.34;5037628;28;45469;-77
2024/01/09 07:17:39;;;;;;;;;24.75;21.75;;;;;9.14;34.69;102113.19;5034774;28;45476;-80
2024/01/09 07:20:05;;;;;;;;;23.25;22.50;;;;;9.20;34.83;102121.09;5035523;28;45419;-80
2024/01/09 07:22:30;;;;;;;;;20.25;19.25;;;;;8.98;34.73;102088.53;5016486;28;47460;-79
2024/01/09 07:24:56;;;;;;;;;31.50;28.00;;;;;9.14;34.42;102119.44;5034578;28;45431;-80
2024/01/09 07:27:21;;;;;;;;;31.50;23.00;;;;;8.91;34.68;102077.06;5045818;28;45534;-78
2024/01/09 07:29:50;;;;;;;;;27.25;23.00;;;;;9.18;34.97;102125.63;5036279;28;45313;-78
2024/01/09 07:32:16;;;;;;;;;25.00;21.50;;;;;9.09;34.90;102105.28;5018648;28;47064;-80
2024/01/09 07:34:43;;;;;;;;;25.50;24.00;;;;;9.04;34.84;102096.44;5018726;28;45466;-80
2024/01/09 07:37:08;;;;;;;;;24.50;22.50;;;;;9.14;35.55;102091.81;5037911;28;45312;-78
2024/01/09 07:39:33;;;;;;;;;22.00;21.00;;;;;9.27;35.29;102112.94;5037112;28;54669;-80
2024/01/09 07:41:58;;;;;;;;;23.75;21.00;;;;;9.11;34.54;102093.63;5037549;28;45446;-79
2024/01/09 07:44:24;;;;;;;;;19.50;14.75;;;;;9.35;35.04;102116.38;5037649;28;45338;-78
2024/01/09 07:46:49;;;;;;;;;22.50;19.00;;;;;9.21;35.11;102080.06;5048468;28;45267;-79
2024/01/09 07:49:15;;;;;;;;;22.25;19.75;;;;;9.28;35.02;102100.44;5025752;28;46684;-80
2024/01/09 07:51:40;;;;;;;;;25.25;24.50;;;;;9.43;35.14;102133.19;5024904;28;47773;-79
2024/01/09 07:54:05;;;;;;;;;27.50;23.25;;;;;9.18;35.09;102083.72;5025470;28;45950;-82
2024/01/09 07:56:31;;;;;;;;;25.75;22.75;;;;;9.18;35.20;102094.41;5025765;28;45286;-80
2024/01/09 07:58:56;;;;;;;;;31.00;24.75;;;;;9.42;35.28;102133.19;5041341;28;45409;-79
2024/01/09 08:01:23;;;;;;;;;28.25;24.25;;;;;9.38;35.07;102142.19;5021946;28;47228;-79
2024/01/09 08:03:48;;;;;;;;;25.50;23.25;;;;;9.11;35.13;102090.06;5036535;28;45429;-79
2024/01/09 08:06:15;;;;;;;;;24.50;21.75;;;;;9.36;34.92;102130.63;5036248;28;45528;-80
2024/01/09 08:08:41;;;;;;;;;32.50;26.50;;;;;9.25;34.78;102120.13;5036085;28;45435;-79
2024/01/09 08:11:07;;;;;;;;;28.75;23.00;;;;;9.18;34.85;102104.22;5036526;28;45493;-79
2024/01/09 08:13:32;;;;;;;;;28.75;24.75;;;;;9.31;34.85;102121.81;5041381;28;45343;-79
2024/01/09 08:15:58;;;;;;;;;23.50;23.50;;;;;9.34;34.91;102122.66;5036552;28;45781;-79
2024/01/09 08:18:24;;;;;;;;;27.75;22.25;;;;;9.42;34.88;102130.53;5036009;28;45371;-75
2024/01/09 08:20:49;;;;;;;;;28.75;25.25;;;;;9.32;34.80;102119.09;5036018;28;45212;-79
2024/01/09 08:23:15;;;;;;;;;30.25;27.25;;;;;9.45;34.64;102146.50;5034465;28;45427;-79
2024/01/09 08:25:41;;;;;;;;;22.00;21.50;;;;;9.35;34.39;102128.88;5036820;28;45493;-80
2024/01/09 08:28:07;;;;;;;;;27.75;27.00;;;;;9.34;34.55;102132.47;5019342;28;46090;-80
2024/01/09 08:30:32;;;;;;;;;31.50;26.00;;;;;9.32;34.41;102120.91;5018637;28;47379;-80
2024/01/09 08:32:57;;;;;;;;;27.75;23.00;;;;;9.36;34.76;102136.84;5036094;28;45417;-80
2024/01/09 08:35:22;;;;;;;;;26.00;26.00;;;;;9.21;34.69;102130.91;5039740;28;46088;-80
2024/01/09 08:37:48;;;;;;;;;30.67;27.00;;;;;9.38;34.29;102159.13;5020036;28;46424;-79
2024/01/09 08:40:14;;;;;;;;;28.67;26.67;;;;;8.83;34.76;102079.00;5035846;28;45289;-78
2024/01/09 08:42:39;;;;;;;;;29.00;26.75;;;;;9.42;34.65;102159.97;5035184;28;46416;-79
2024/01/09 08:45:05;;;;;;;;;29.33;29.00;;;;;9.27;34.81;102131.66;5036281;28;45453;-80
2024/01/09 08:47:30;;;;;;;;;29.67;28.67;;;;;9.26;34.57;102137.97;5035941;28;45508;-78
2024/01/09 08:49:56;;;;;;;;;34.50;24.50;;;;;9.41;34.79;102152.84;5035506;28;46226;-80
2024/01/09 08:52:25;;;;;;;;;31.00;26.33;;;;;9.46;34.68;102173.25;5035750;28;45358;-80
2024/01/09 08:54:52;;;;;;;;;30.75;28.50;;;;;9.46;33.95;102158.97;5035776;28;45216;-80
2024/01/09 08:57:18;;;;;;;;;29.50;26.25;;;;;9.35;34.13;102139.59;5017414;28;46170;-79
2024/01/09 08:59:44;;;;;;;;;23.50;22.50;;;;;9.34;34.25;102146.72;5000973;28;47188;-79
2024/01/09 09:02:09;;;;;;;;;22.00;16.00;;;;;9.45;33.85;102163.44;5035020;28;45472;-79
2024/01/09 09:04:35;;;;;;;;;30.25;27.75;;;;;9.42;34.41;102165.31;5035203;28;45390;-79
2024/01/09 09:07:00;;;;;;;;;38.50;30.50;;;;;9.18;34.10;102122.97;5035427;28;45312;-81
2024/01/09 09:09:25;;;;;;;;;23.50;23.50;;;;;9.30;34.51;102146.78;5017014;28;47467;-80
2024/01/09 09:11:51;;;;;;;;;31.33;28.00;;;;;9.16;34.38;102136.34;5032143;28;45325;-80
2024/01/09 09:14:16;;;;;;;;;37.25;27.00;;;;;9.32;33.93;102161.94;5034826;28;45369;-79
2024/01/09 09:16:43;;;;;;;;;34.75;27.25;;;;;9.20;34.00;102139.84;5029827;28;45519;-79
2024/01/09 09:19:08;;;;;;;;;30.50;25.50;;;;;9.29;34.06;102158.41;5035107;28;45325;-80
2024/01/09 09:21:34;;;;;;;;;30.00;26.50;;;;;9.16;34.12;102136.34;5014483;28;45508;-80
2024/01/09 09:23:59;;;;;;;;;26.50;25.75;;;;;9.17;33.84;102131.88;5035573;28;45628;-80
2024/01/09 09:26:24;;;;;;;;;33.00;23.00;;;;;9.30;34.14;102155.72;5035051;28;45574;-79
2024/01/09 09:28:50;;;;;;;;;28.50;26.25;;;;;9.26;33.87;102137.06;5034792;28;46197;-79
2024/01/09 09:31:16;;;;;;;;;29.25;24.75;;;;;9.40;33.85;102169.81;5034511;28;45418;-79
2024/01/09 09:33:42;;;;;;;;;33.00;26.50;;;;;9.30;33.83;102157.50;5017304;28;45550;-79
2024/01/09 09:36:07;;;;;;;;;27.67;24.67;;;;;9.26;33.52;102155.81;5035575;28;45514;-81
2024/01/09 09:38:33;;;;;;;;;28.00;23.00;;;;;9.20;33.52;102137.16;5035514;28;46082;-80
2024/01/09 09:41:05;;;;;;;;;37.25;29.75;;;;;9.01;33.50;102096.50;5025182;28;45297;-81
2024/01/09 09:43:33;;;;;;;;;32.75;26.25;;;;;9.43;34.05;102157.28;5034982;28;45440;-78
2024/01/09 09:46:01;;;;;;;;;28.25;26.25;;;;;9.41;33.50;102144.81;5034464;28;46107;-79
2024/01/09 09:48:28;;;;;;;;;27.50;26.50;;;;;9.50;33.67;102158.03;5034964;28;48200;-79
2024/01/09 09:50:55;;;;;;;;;37.00;32.00;;;;;9.32;33.27;102127.13;5015979;28;45454;-79
2024/01/09 09:53:22;;;;;;;;;30.00;27.75;;;;;9.31;33.12;102133.41;5034968;28;45323;-79
2024/01/09 09:55:50;;;;;;;;;33.50;26.00;;;;;9.47;32.97;102164.31;5034701;28;45370;-80
2024/01/09 09:58:15;;;;;;;;;30.50;25.50;;;;;9.51;33.12;102166.94;5016775;28;47113;-80
2024/01/09 10:00:41;;;;;;;;;35.25;26.00;;;;;9.52;32.54;102163.34;5016873;28;45478;-79
2024/01/09 10:03:08;;;;;;;;;23.75;21.25;;;;;9.59;33.46;102165.00;5035149;28;45367;-81
2024/01/09 10:05:38;;;;;;;;;27.00;25.50;;;;;9.65;32.83;102156.84;5032094;28;45486;-79
2024/01/09 10:08:07;;;;;;;;;35.00;26.75;;;;;9.46;32.84;102127.75;5026216;28;45338;-81
2024/01/09 10:10:33;;;;;;;;;27.00;24.50;;;;;9.54;32.51;102135.63;5033586;28;46156;-79
2024/01/09 10:12:59;;;;;;;;;29.25;23.75;;;;;9.77;33.29;102173.56;5038509;28;45431;-79
2024/01/09 10:15:25;;;;;;;;;26.33;24.67;;;;;9.69;32.49;102148.75;5035923;28;45214;-79
2024/01/09 10:17:52;;;;;;;;;33.00;30.33;;;;;9.62;32.55;102128.31;5034058;28;46114;-78
2024/01/09 10:20:17;;;;;;;;;31.25;30.50;;;;;9.81;32.69;102148.47;5033472;28;45520;-81
2024/01/09 10:22:43;;;;;;;;;24.50;16.50;;;;;9.87;32.49;102159.06;5020058;28;45261;-77
2024/01/09 10:25:11;;;;;;;;;33.00;30.75;;;;;9.67;32.54;102114.84;5037011;28;45292;-82
2024/01/09 10:27:37;;;;;;;;;40.00;31.00;;;;;9.83;32.58;102129.69;5019234;28;47144;-79
2024/01/09 10:30:08;;;;;;;;;29.75;28.00;;;;;9.93;32.40;102144.66;5037000;28;45430;-80
2024/01/09 10:32:35;;;;;;;;;28.75;25.75;;;;;9.97;32.55;102148.16;5036841;28;45579;-78
2024/01/09 10:35:05;;;;;;;;;34.33;27.33;;;;;10.05;32.07;102149.75;5019182;28;46752;-77
2024/01/09 10:37:31;;;;;;;;;36.25;26.00;;;;;10.05;32.46;102148.88;5037022;28;45292;-76
2024/01/09 10:39:58;;;;;;;;;31.75;27.50;;;;;10.03;31.66;102142.69;5035265;28;45435;-79
2024/01/09 10:42:23;;;;;;;;;26.25;24.00;;;;;9.98;31.71;102136.53;5030377;28;45311;-78
2024/01/09 10:44:49;;;;;;;;;35.00;26.25;;;;;10.03;32.11;102127.50;5036485;28;45286;-76
2024/01/09 10:47:16;;;;;;;;;37.50;31.75;;;;;10.02;31.59;102138.25;5037228;28;46158;-80
2024/01/09 10:49:42;;;;;;;;;27.75;26.75;;;;;10.03;31.75;102146.25;5019575;28;45431;-78
2024/01/09 10:52:13;;;;;;;;;30.25;28.00;;;;;9.96;31.55;102131.19;5037375;28;45542;-77
2024/01/09 10:54:44;;;;;;;;;34.25;31.50;;;;;9.93;31.44;102131.28;5024631;28;45358;-79
2024/01/09 10:57:14;;;;;;;;;28.50;26.00;;;;;9.84;31.16;102118.06;5037280;28;45468;-79
2024/01/09 10:59:41;;;;;;;;;32.00;27.33;;;;;9.85;31.79;102123.41;5019048;28;45415;-78
2024/01/09 11:02:15;;;;;;;;;29.75;27.00;;;;;9.77;31.65;102122.69;5040228;28;45399;-78
2024/01/09 11:04:44;;;;;;;;;29.75;25.00;;;;;9.75;31.72;102118.25;5046743;28;45351;-75
2024/01/09 11:07:14;;;;;;;;;27.50;26.75;;;;;9.77;32.00;102125.34;5038103;28;45313;-78
2024/01/09 11:09:42;;;;;;;;;34.50;29.75;;;;;9.54;31.63;102083.88;5020627;28;45429;-78
2024/01/09 11:12:11;;;;;;;;;33.00;32.00;;;;;9.74;31.70;102113.81;5036511;28;45378;-75
2024/01/09 11:14:41;;;;;;;;;32.25;30.50;;;;;9.83;31.62;102135.94;5042816;28;45597;-79
2024/01/09 11:17:08;;;;;;;;;28.75;26.00;;;;;9.76;31.31;102123.59;5018948;28;47854;-78
2024/01/09 11:19:35;;;;;;;;;31.25;28.50;;;;;9.82;31.75;102138.66;5035991;28;45558;-78
2024/01/09 11:22:17;;;;;;;;;29.00;29.00;;;;;9.65;31.32;102122.91;5018222;28;45315;-76
2024/01/09 11:24:47;;;;;;;;;29.50;26.75;;;;;9.68;31.42;102128.22;5036268;28;45391;-75
2024/01/09 11:27:14;;;;;;;;;32.75;27.00;;;;;9.69;31.86;102131.78;5036566;28;45320;-76
2024/01/09 11:29:49;;;;;;;;;34.50;31.25;;;;;9.60;31.58;102121.25;5036359;28;45505;-76
2024/01/09 11:32:16;;;;;;;;;29.00;26.33;;;;;9.52;31.98;102124.09;5034604;28;45433;-77
2024/01/09 11:34:47;;;;;;;;;33.67;29.67;;;;;9.47;31.54;102121.47;5034969;28;45554;-77
2024/01/09 11:37:19;;;;;;;;;44.25;31.50;;;;;9.58;31.75;102136.47;5036153;28;46350;-77
2024/01/09 11:39:45;;;;;;;;;28.67;26.33;;;;;9.51;31.57;102125.00;5035244;28;45460;-78
2024/01/09 11:42:11;;;;;;;;;35.33;35.00;;;;;9.48;31.22;102139.31;5027486;28;45458;-77
2024/01/09 11:44:36;;;;;;;;;33.33;30.33;;;;;9.47;31.28;102126.84;5035513;28;45560;-77
2024/01/09 11:47:02;;;;;;;;;34.00;25.00;;;;;9.40;31.46;102122.53;5035331;28;49333;-76
2024/01/09 11:49:27;;;;;;;;;32.00;30.00;;;;;9.20;31.65;102087.22;5035704;28;45454;-76
2024/01/09 11:51:55;;;;;;;;;29.33;25.67;;;;;9.37;31.73;102127.03;5017866;28;45987;-77
2024/01/09 11:54:21;;;;;;;;;27.33;25.00;;;;;9.31;31.86;102132.50;5035450;28;45402;-76
2024/01/09 11:56:48;;;;;;;;;35.00;27.67;;;;;9.29;31.78;102135.22;5017282;28;46657;-75
2024/01/09 11:59:19;;;;;;;;;29.00;29.00;;;;;9.31;32.13;102120.00;5035404;28;47094;-76
2024/01/09 12:01:47;;;;;;;;;28.33;26.00;;;;;9.35;31.40;102127.09;5035940;28;45363;-76
2024/01/09 12:04:14;;;;;;;;;33.67;28.00;;;;;9.30;31.57;102128.94;5035642;28;45388;-77
2024/01/09 12:06:39;;;;;;;;;32.33;27.33;;;;;9.25;31.57;102108.53;5017400;28;46469;-76
2024/01/09 12:09:05;;;;;;;;;36.67;30.00;;;;;9.31;31.63;102111.09;5017219;28;45445;-77
2024/01/09 12:11:31;;;;;;;;;42.67;31.33;;;;;9.36;31.87;102107.41;5035768;28;45354;-77
2024/01/09 12:14:03;;;;;;;;;28.33;24.33;;;;;9.49;31.53;102125.03;5041912;28;45478;-77
2024/01/09 12:16:29;;;;;;;;;35.33;32.33;;;;;9.55;31.62;102110.63;5035409;28;45761;-77
2024/01/09 12:18:56;;;;;;;;;28.67;27.00;;;;;9.68;31.20;102103.25;5035639;28;45397;-76
2024/01/09 12:21:26;;;;;;;;;34.67;29.67;;;;;9.69;31.77;102110.38;5015795;28;45320;-76
2024/01/09 12:23:53;;;;;;;;;28.25;27.25;;;;;9.70;31.51;102110.31;5022418;28;45614;-77
2024/01/09 12:26:22;;;;;;;;;36.75;30.75;;;;;9.62;30.98;102087.28;5035254;28;45445;-75
2024/01/09 12:28:48;;;;;;;;;48.25;34.00;;;;;9.68;31.32;102096.09;5035287;28;45403;-78
2024/01/09 12:31:17;;;;;;;;;28.75;28.75;;;;;9.71;31.16;102101.34;5014088;28;45406;-76
2024/01/09 12:33:42;;;;;;;;;38.00;31.33;;;;;9.72;31.00;102100.44;5015535;28;45624;-77
2024/01/09 12:36:08;;;;;;;;;33.75;31.00;;;;;9.63;30.79;102092.59;5014994;28;46096;-77
2024/01/09 12:38:33;;;;;;;;;32.50;30.50;;;;;9.69;30.73;102099.66;5015157;28;45464;-74
2024/01/09 12:41:00;;;;;;;;;30.00;28.00;;;;;9.69;31.06;102099.66;5006653;28;45375;-82
2024/01/09 12:43:27;;;;;;;;;34.33;32.67;;;;;9.72;31.09;102095.09;5015161;28;45226;-78
2024/01/09 12:45:52;;;;;;;;;36.33;31.00;;;;;9.77;31.06;102100.38;5014933;28;45484;-79
2024/01/09 12:48:17;;;;;;;;;32.00;27.00;;;;;9.78;31.07;102092.28;4997271;28;45840;-80
2024/01/09 12:50:43;;;;;;;;;33.50;30.50;;;;;9.75;30.72;102072.72;4997262;28;45340;-77
2024/01/09 12:53:10;;;;;;;;;38.00;31.00;;;;;9.70;30.49;102048.72;5015588;28;45321;-83
2024/01/09 12:55:35;;;;;;;;;31.67;29.00;;;;;9.83;30.65;102054.69;5015609;28;45462;-82
2024/01/09 12:58:01;;;;;;;;;33.00;28.33;;;;;9.72;30.63;102041.53;5015432;28;45551;-85
2024/01/09 13:00:26;;;;;;;;;38.67;33.00;;;;;9.51;30.90;102003.66;5015409;28;45574;-76
2024/01/09 13:02:51;;;;;;;;;34.25;31.25;;;;;9.85;30.71;102061.81;5015538;28;45645;-78
2024/01/09 13:05:17;;;;;;;;;35.33;30.33;;;;;9.90;30.59;102061.69;5014629;28;45653;-80
2024/01/09 13:07:43;;;;;;;;;34.25;31.25;;;;;9.91;30.47;102055.41;4996679;28;45415;-79
2024/01/09 13:10:08;;;;;;;;;30.00;30.00;;;;;10.04;30.86;102056.00;5015029;28;45537;-76
2024/01/09 13:12:34;;;;;;;;;34.75;31.75;;;;;9.79;30.69;102018.16;5014332;28;45348;-78
2024/01/09 13:14:59;;;;;;;;;32.25;30.50;;;;;9.82;30.37;102018.13;4995861;28;47687;-77
2024/01/09 13:17:25;;;;;;;;;38.33;32.00;;;;;10.06;30.23;102054.19;5014485;28;45219;-76
2024/01/09 13:19:52;;;;;;;;;34.50;32.25;;;;;10.04;31.12;102047.97;5010863;28;45420;-77
2024/01/09 13:22:17;;;;;;;;;33.00;27.75;;;;;10.01;30.83;102027.50;4996414;28;47254;-78
2024/01/09 13:24:42;;;;;;;;;39.00;32.33;;;;;10.27;29.77;102052.84;5014307;28;48609;-77
2024/01/09 13:27:07;;;;;;;;;38.33;34.33;;;;;10.26;30.51;102054.63;5014588;28;45210;-78
2024/01/09 13:29:33;;;;;;;;;40.67;33.00;;;;;10.16;30.29;102031.63;5014747;28;45257;-79
2024/01/09 13:31:59;;;;;;;;;31.25;28.25;;;;;10.08;30.25;102029.13;5026277;28;45483;-77
2024/01/09 13:34:24;;;;;;;;;38.50;30.25;;;;;10.15;30.14;102036.09;5034079;28;45927;-77
2024/01/09 13:36:52;;;;;;;;;35.75;28.25;;;;;10.09;29.91;102030.00;5014154;28;45498;-78
2024/01/09 13:39:21;;;;;;;;;28.25;25.75;;;;;10.26;30.10;102057.31;5033294;28;45971;-76
2024/01/09 13:41:47;;;;;;;;;39.25;31.50;;;;;10.27;30.05;102048.38;5012717;28;47133;-78
2024/01/09 13:44:13;;;;;;;;;24.75;24.75;;;;;10.26;29.74;102043.91;5012579;28;48072;-78
2024/01/09 13:46:38;;;;;;;;;31.75;26.25;;;;;10.31;30.01;102038.44;5033130;28;45443;-77
2024/01/09 13:49:03;;;;;;;;;35.00;28.75;;;;;10.35;29.90;102038.34;5034335;28;45293;-78
2024/01/09 13:51:29;;;;;;;;;33.50;31.00;;;;;9.99;29.53;102007.00;5032270;28;45501;-79
2024/01/09 13:53:54;;;;;;;;;33.50;25.25;;;;;10.16;29.96;102042.34;5033519;28;46477;-77
2024/01/09 13:56:19;;;;;;;;;33.25;28.75;;;;;10.04;30.23;102022.06;5031261;28;45561;-79
2024/01/09 13:58:45;;;;;;;;;31.25;29.75;;;;;10.11;30.36;102049.63;5033643;28;47497;-78
2024/01/09 14:01:10;;;;;;;;;21.50;19.50;;;;;10.11;30.30;102037.09;5033872;28;45739;-77
2024/01/09 14:03:35;;;;;;;;;32.25;30.75;;;;;10.03;30.60;102033.72;5032395;28;45363;-80
2024/01/09 14:06:01;;;;;;;;;58.33;47.33;;;;;9.97;30.44;102035.63;5033803;28;46514;-79
2024/01/09 14:08:26;;;;;;;;;42.25;32.75;;;;;9.90;30.44;102013.47;5033989;28;45962;-77
2024/01/09 14:10:51;;;;;;;;;66.33;52.33;;;;;9.69;30.41;102003.25;5034096;28;45512;-77
2024/01/09 14:13:17;;;;;;;;;59.67;50.00;;;;;9.52;30.62;101973.28;5039380;28;45434;-79
2024/01/09 14:15:42;;;;;;;;;46.67;37.67;;;;;9.94;30.49;102043.75;5033926;28;45313;-77
2024/01/09 14:18:08;;;;;;;;;33.25;27.25;;;;;9.69;30.68;102011.28;5033811;28;45403;-79
2024/01/09 14:20:33;;;;;;;;;40.25;35.75;;;;;9.92;30.77;102046.47;5032569;28;45522;-76
2024/01/09 14:22:59;;;;;;;;;39.50;32.25;;;;;9.86;30.77;102035.91;5029903;28;45346;-78
2024/01/09 14:25:26;;;;;;;;;33.00;30.33;;;;;9.92;30.66;102056.28;5033722;28;45521;-77
2024/01/09 14:27:51;;;;;;;;;35.67;35.00;;;;;9.83;30.78;102038.63;5033351;28;45365;-79
2024/01/09 14:30:18;;;;;;;;;28.25;27.75;;;;;9.66;30.62;102014.91;5033804;28;45418;-79
2024/01/09 14:32:49;;;;;;;;;50.50;31.75;;;;;9.71;31.32;102028.16;5033063;28;45521;-79
2024/01/09 14:35:15;;;;;;;;;43.00;33.33;;;;;9.77;30.77;102049.50;5015457;28;46373;-77
2024/01/09 14:37:42;;;;;;;;;35.67;28.67;;;;;9.71;31.02;102050.47;5033288;28;45527;-79
2024/01/09 14:40:11;;;;;;;;;30.75;29.00;;;;;9.72;30.91;102048.69;5029902;28;45268;-79
2024/01/09 14:42:39;;;;;;;;;31.00;27.33;;;;;9.48;31.07;102020.66;5010137;28;47246;-77
2024/01/09 14:45:12;;;;;;;;;33.25;28.50;;;;;9.57;30.65;102044.53;5033788;28;45320;-80
2024/01/09 14:47:38;;;;;;;;;35.33;30.67;;;;;9.68;31.26;102050.56;5033327;28;45327;-78
2024/01/09 14:50:04;;;;;;;;;35.67;29.00;;;;;9.70;30.76;102054.06;5033464;28;45537;-76
2024/01/09 14:52:29;;;;;;;;;42.00;37.00;;;;;9.69;30.91;102054.13;5033391;28;45430;-77
2024/01/09 14:54:55;;;;;;;;;38.67;35.33;;;;;9.68;31.05;102050.56;5032793;28;45388;-79
2024/01/09 14:57:20;;;;;;;;;39.00;35.33;;;;;9.70;30.82;102046.03;5017880;28;45600;-80
2024/01/09 14:59:46;;;;;;;;;36.67;32.00;;;;;9.58;31.30;102022.22;5016908;28;46120;-79
2024/01/09 15:02:11;;;;;;;;;38.25;28.50;;;;;9.69;30.73;102036.28;5017269;28;47365;-79
2024/01/09 15:04:40;;;;;;;;;33.75;30.00;;;;;9.47;31.14;102000.13;5039058;28;45261;-78
2024/01/09 15:07:07;;;;;;;;;32.25;22.25;;;;;9.55;30.68;102030.31;5034259;28;45564;-79
2024/01/09 15:09:32;;;;;;;;;29.00;27.75;;;;;9.59;30.94;102033.81;5033338;28;45376;-77
2024/01/09 15:11:57;;;;;;;;;40.00;29.50;;;;;9.46;30.66;102011.75;5037043;28;58357;-80
2024/01/09 15:14:22;;;;;;;;;28.75;27.00;;;;;9.62;31.15;102052.47;5037344;28;45288;-80
2024/01/09 15:16:48;;;;;;;;;32.50;27.75;;;;;9.39;30.97;102007.44;5019087;28;45351;-74
2024/01/09 15:19:14;;;;;;;;;27.25;24.25;;;;;9.73;31.18;102054.00;5036245;28;45313;-76
2024/01/09 15:21:39;;;;;;;;;36.00;33.67;;;;;9.72;31.31;102054.94;5034155;28;45355;-76
2024/01/09 15:24:06;;;;;;;;;37.25;32.25;;;;;9.78;31.14;102057.47;5035673;28;51940;-77
2024/01/09 15:26:31;;;;;;;;;40.25;27.75;;;;;9.78;31.14;102059.28;5036145;28;45612;-78
2024/01/09 15:28:57;;;;;;;;;30.00;30.00;;;;;9.57;31.30;102035.63;5036197;28;45548;-76
2024/01/09 15:31:22;;;;;;;;;33.50;30.00;;;;;9.58;30.93;102048.09;5035753;28;46010;-75
2024/01/09 15:33:48;;;;;;;;;33.00;30.00;;;;;9.70;30.89;102062.09;5018335;28;45386;-76
2024/01/09 15:36:14;;;;;;;;;32.75;29.25;;;;;9.51;31.06;102049.16;5036225;28;45519;-79
2024/01/09 15:38:39;;;;;;;;;35.33;33.67;;;;;9.66;31.32;102086.31;5018129;28;46175;-74
2024/01/09 15:41:08;;;;;;;;;30.00;29.33;;;;;9.50;31.21;102067.00;5026674;28;46291;-74
2024/01/09 15:43:34;;;;;;;;;32.33;28.67;;;;;9.48;30.86;102085.78;5035963;28;45379;-75
2024/01/09 15:45:59;;;;;;;;;27.67;22.67;;;;;9.41;31.08;102072.53;5035838;28;45670;-74
2024/01/09 15:48:25;;;;;;;;;39.33;33.67;;;;;9.51;31.23;102089.31;5035969;28;51687;-77
2024/01/09 15:50:50;;;;;;;;;31.33;30.67;;;;;9.45;31.40;102075.13;5036169;28;46094;-75
2024/01/09 15:53:17;;;;;;;;;26.00;23.25;;;;;9.39;31.48;102082.38;5035157;28;45331;-74
2024/01/09 15:55:42;;;;;;;;;24.33;23.67;;;;;9.55;31.01;102086.53;5035300;28;45440;-73
2024/01/09 15:58:09;;;;;;;;;34.00;27.67;;;;;9.59;31.17;102084.69;5017396;28;47052;-73
2024/01/09 16:00:34;;;;;;;;;27.00;26.50;;;;;9.46;31.38;102068.84;5016205;28;47485;-75
2024/01/09 16:02:59;;;;;;;;;35.75;30.00;;;;;9.63;31.50;102097.97;5033580;28;46169;-75
2024/01/09 16:05:25;;;;;;;;;35.75;27.00;;;;;9.60;31.03;102083.78;5034540;28;45365;-75
2024/01/09 16:07:53;;;;;;;;;31.67;29.33;;;;;9.58;31.01;102090.94;5035155;28;45372;-75
2024/01/09 16:10:19;;;;;;;;;33.25;30.75;;;;;9.54;31.41;102091.91;5035429;28;45417;-76
2024/01/09 16:12:44;;;;;;;;;34.00;31.33;;;;;9.57;31.11;102097.22;5037802;28;50519;-75
2024/01/09 16:15:09;;;;;;;;;37.33;31.00;;;;;9.53;31.44;102100.88;5020842;28;47716;-76
2024/01/09 16:17:35;;;;;;;;;36.00;32.00;;;;;9.48;31.58;102096.47;5013570;28;47199;-77
2024/01/09 16:20:00;;;;;;;;;30.00;30.00;;;;;9.32;30.98;102068.25;5032529;28;46051;-75
2024/01/09 16:22:25;;;;;;;;;34.33;30.33;;;;;9.40;30.95;102095.75;5032814;28;45284;-75
2024/01/09 16:24:52;;;;;;;;;22.00;22.00;;;;;9.45;31.44;102095.66;5034646;28;45332;-75
2024/01/09 16:27:17;;;;;;;;;36.00;31.67;;;;;9.38;31.84;102086.88;5035020;28;45335;-77
2024/01/09 16:29:43;;;;;;;;;29.67;26.00;;;;;9.45;31.65;102103.69;5034785;28;45696;-76
2024/01/09 16:32:08;;;;;;;;;26.67;23.33;;;;;9.44;32.00;102107.28;5016858;28;45394;-76
2024/01/09 16:34:33;;;;;;;;;32.00;26.67;;;;;9.41;31.60;102105.56;5017122;28;46036;-75
2024/01/09 16:37:00;;;;;;;;;37.00;37.00;;;;;9.35;32.17;102089.63;5034934;28;45392;-78
2024/01/09 16:39:25;;;;;;;;;36.67;31.00;;;;;9.41;32.36;102100.19;5034901;28;45618;-74
2024/01/09 16:41:51;;;;;;;;;36.33;28.67;;;;;9.46;32.08;102114.34;5034876;28;45391;-78
2024/01/09 16:44:16;;;;;;;;;30.67;29.33;;;;;9.35;32.68;102110.16;5034612;28;45387;-76